sensor_id;sensor_type;location;lat;lon;timestamp;pressure;altitude;pressure_sealevel;temperature
63113;BMP280;49206;48.020;21.378;2023-03-05T00:00:26;100201.31;;;0.22
63113;BMP280;49206;48.020;21.378;2023-03-05T00:01:30;100206.75;;;0.20
63113;BMP280;49206;48.020;21.378;2023-03-05T00:02:36;100207.81;;;0.19
63113;BMP280;49206;48.020;21.378;2023-03-05T00:03:39;100202.63;;;0.19
63113;BMP280;49206;48.020;21.378;2023-03-05T00:04:41;100207.31;;;0.13
63113;BMP280;49206;48.020;21.378;2023-03-05T00:05:44;100213.28;;;-0.07
63113;BMP280;49206;48.020;21.378;2023-03-05T00:06:46;100208.59;;;-0.15
63113;BMP280;49206;48.020;21.378;2023-03-05T00:07:49;100209.41;;;-0.10
63113;BMP280;49206;48.020;21.378;2023-03-05T00:08:51;100215.63;;;-0.01
63113;BMP280;49206;48.020;21.378;2023-03-05T00:09:54;100205.00;;;-0.09
63113;BMP280;49206;48.020;21.378;2023-03-05T00:11:02;100208.88;;;0.03
63113;BMP280;49206;48.020;21.378;2023-03-05T00:12:06;100207.03;;;-0.01
63113;BMP280;49206;48.020;21.378;2023-03-05T00:13:09;100208.34;;;-0.04
63113;BMP280;49206;48.020;21.378;2023-03-05T00:14:11;100203.41;;;-0.10
63113;BMP280;49206;48.020;21.378;2023-03-05T00:15:14;100205.50;;;-0.02
63113;BMP280;49206;48.020;21.378;2023-03-05T00:16:17;100209.13;;;-0.08
63113;BMP280;49206;48.020;21.378;2023-03-05T00:17:19;100207.31;;;-0.18
63113;BMP280;49206;48.020;21.378;2023-03-05T00:18:22;100206.78;;;-0.10
63113;BMP280;49206;48.020;21.378;2023-03-05T00:19:25;100207.03;;;-0.06
63113;BMP280;49206;48.020;21.378;2023-03-05T00:20:28;100205.75;;;-0.24
63113;BMP280;49206;48.020;21.378;2023-03-05T00:21:38;100210.41;;;-0.26
63113;BMP280;49206;48.020;21.378;2023-03-05T00:22:41;100205.22;;;-0.26
63113;BMP280;49206;48.020;21.378;2023-03-05T00:23:43;100205.50;;;-0.27
63113;BMP280;49206;48.020;21.378;2023-03-05T00:24:49;100206.25;;;-0.22
63113;BMP280;49206;48.020;21.378;2023-03-05T00:25:52;100218.69;;;-0.34
63113;BMP280;49206;48.020;21.378;2023-03-05T00:26:55;100212.25;;;-0.31
63113;BMP280;49206;48.020;21.378;2023-03-05T00:27:57;100212.75;;;-0.29
63113;BMP280;49206;48.020;21.378;2023-03-05T00:29:00;100215.09;;;-0.13
63113;BMP280;49206;48.020;21.378;2023-03-05T00:30:03;100209.13;;;-0.13
63113;BMP280;49206;48.020;21.378;2023-03-05T00:31:05;100208.34;;;-0.09
63113;BMP280;49206;48.020;21.378;2023-03-05T00:32:08;100208.84;;;-0.12
63113;BMP280;49206;48.020;21.378;2023-03-05T00:33:11;100212.25;;;-0.06
63113;BMP280;49206;48.020;21.378;2023-03-05T00:34:16;100217.97;;;0.01
63113;BMP280;49206;48.020;21.378;2023-03-05T00:35:19;100209.63;;;0.04
63113;BMP280;49206;48.020;21.378;2023-03-05T00:36:22;100207.03;;;-0.01
63113;BMP280;49206;48.020;21.378;2023-03-05T00:37:25;100213.28;;;0.03
63113;BMP280;49206;48.020;21.378;2023-03-05T00:38:28;100207.56;;;0.06
63113;BMP280;49206;48.020;21.378;2023-03-05T00:39:31;100202.38;;;0.01
63113;BMP280;49206;48.020;21.378;2023-03-05T00:40:38;100214.06;;;-0.07
63113;BMP280;49206;48.020;21.378;2023-03-05T00:41:41;100208.59;;;-0.10
63113;BMP280;49206;48.020;21.378;2023-03-05T00:42:43;100202.66;;;-0.06
63113;BMP280;49206;48.020;21.378;2023-03-05T00:43:46;100210.16;;;0.01
63113;BMP280;49206;48.020;21.378;2023-03-05T00:44:48;100204.72;;;-0.03
63113;BMP280;49206;48.020;21.378;2023-03-05T00:45:50;100206.28;;;-0.02
63113;BMP280;49206;48.020;21.378;2023-03-05T00:46:53;100211.97;;;0.00
63113;BMP280;49206;48.020;21.378;2023-03-05T00:47:56;100204.72;;;0.08
63113;BMP280;49206;48.020;21.378;2023-03-05T00:48:58;100210.16;;;0.06
63113;BMP280;49206;48.020;21.378;2023-03-05T00:50:01;100208.88;;;0.03
63113;BMP280;49206;48.020;21.378;2023-03-05T00:51:03;100208.09;;;0.03
63113;BMP280;49206;48.020;21.378;2023-03-05T00:52:06;100203.44;;;0.10
63113;BMP280;49206;48.020;21.378;2023-03-05T00:53:09;100205.75;;;0.12
63113;BMP280;49206;48.020;21.378;2023-03-05T00:54:11;100201.34;;;0.07
63113;BMP280;49206;48.020;21.378;2023-03-05T00:55:14;100203.69;;;0.03
63113;BMP280;49206;48.020;21.378;2023-03-05T00:56:17;100204.19;;;0.05
63113;BMP280;49206;48.020;21.378;2023-03-05T00:57:20;100201.34;;;-0.13
63113;BMP280;49206;48.020;21.378;2023-03-05T00:58:23;100202.13;;;-0.18
63113;BMP280;49206;48.020;21.378;2023-03-05T00:59:25;100200.56;;;-0.14
63113;BMP280;49206;48.020;21.378;2023-03-05T01:00:28;100206.81;;;-0.25
63113;BMP280;49206;48.020;21.378;2023-03-05T01:01:30;100196.16;;;-0.18
63113;BMP280;49206;48.020;21.378;2023-03-05T01:02:33;100197.97;;;-0.24
63113;BMP280;49206;48.020;21.378;2023-03-05T01:03:36;100201.88;;;-0.21
63113;BMP280;49206;48.020;21.378;2023-03-05T01:04:38;100205.50;;;-0.22
63113;BMP280;49206;48.020;21.378;2023-03-05T01:05:41;100206.81;;;-0.20
63113;BMP280;49206;48.020;21.378;2023-03-05T01:06:44;100209.41;;;-0.25
63113;BMP280;49206;48.020;21.378;2023-03-05T01:07:51;100208.56;;;-0.35
63113;BMP280;49206;48.020;21.378;2023-03-05T01:08:54;100208.81;;;-0.37
63113;BMP280;49206;48.020;21.378;2023-03-05T01:09:57;100206.22;;;-0.37
63113;BMP280;49206;48.020;21.378;2023-03-05T01:11:00;100207.78;;;-0.41
63113;BMP280;49206;48.020;21.378;2023-03-05T01:12:02;100203.38;;;-0.40
63113;BMP280;49206;48.020;21.378;2023-03-05T01:13:05;100209.06;;;-0.38
63113;BMP280;49206;48.020;21.378;2023-03-05T01:14:07;100209.63;;;-0.36
63113;BMP280;49206;48.020;21.378;2023-03-05T01:15:10;100209.06;;;-0.33
63113;BMP280;49206;48.020;21.378;2023-03-05T01:16:13;100212.22;;;-0.36
63113;BMP280;49206;48.020;21.378;2023-03-05T01:17:15;100213.47;;;-0.44
63113;BMP280;49206;48.020;21.378;2023-03-05T01:18:19;100209.06;;;-0.43
63113;BMP280;49206;48.020;21.378;2023-03-05T01:19:21;100205.44;;;-0.42
63113;BMP280;49206;48.020;21.378;2023-03-05T01:20:23;100208.56;;;-0.35
63113;BMP280;49206;48.020;21.378;2023-03-05T01:21:26;100207.56;;;-0.29
63113;BMP280;49206;48.020;21.378;2023-03-05T01:22:28;100206.00;;;-0.30
63113;BMP280;49206;48.020;21.378;2023-03-05T01:23:31;100209.06;;;-0.33
63113;BMP280;49206;48.020;21.378;2023-03-05T01:24:35;100211.16;;;-0.35
63113;BMP280;49206;48.020;21.378;2023-03-05T01:25:37;100212.25;;;-0.31
63113;BMP280;49206;48.020;21.378;2023-03-05T01:26:40;100209.66;;;-0.31
63113;BMP280;49206;48.020;21.378;2023-03-05T01:27:43;100209.63;;;-0.36
63113;BMP280;49206;48.020;21.378;2023-03-05T01:28:46;100215.06;;;-0.33
63113;BMP280;49206;48.020;21.378;2023-03-05T01:29:49;100208.09;;;-0.27
63113;BMP280;49206;48.020;21.378;2023-03-05T01:30:52;100209.16;;;-0.18
63113;BMP280;49206;48.020;21.378;2023-03-05T01:31:54;100202.38;;;-0.19
63113;BMP280;49206;48.020;21.378;2023-03-05T01:32:57;100206.25;;;-0.12
63113;BMP280;49206;48.020;21.378;2023-03-05T01:33:59;100209.66;;;-0.11
63113;BMP280;49206;48.020;21.378;2023-03-05T01:35:03;100206.28;;;-0.02
63113;BMP280;49206;48.020;21.378;2023-03-05T01:36:08;100201.59;;;-0.10
63113;BMP280;49206;48.020;21.378;2023-03-05T01:37:14;100207.84;;;-0.11
63113;BMP280;49206;48.020;21.378;2023-03-05T01:38:17;100204.22;;;-0.15
63113;BMP280;49206;48.020;21.378;2023-03-05T01:39:19;100208.59;;;-0.05
63113;BMP280;49206;48.020;21.378;2023-03-05T01:40:25;100200.31;;;-0.02
63113;BMP280;49206;48.020;21.378;2023-03-05T01:41:28;100199.25;;;0.04
63113;BMP280;49206;48.020;21.378;2023-03-05T01:42:31;100189.41;;;0.01
63113;BMP280;49206;48.020;21.378;2023-03-05T01:43:35;100196.13;;;0.12
63113;BMP280;49206;48.020;21.378;2023-03-05T01:44:37;100195.09;;;0.18
63113;BMP280;49206;48.020;21.378;2023-03-05T01:47:17;100194.00;;;0.34
63113;BMP280;49206;48.020;21.378;2023-03-05T01:48:20;100198.16;;;0.35
63113;BMP280;49206;48.020;21.378;2023-03-05T01:49:26;100195.03;;;0.38
63113;BMP280;49206;48.020;21.378;2023-03-05T01:50:31;100194.50;;;0.41
63113;BMP280;49206;48.020;21.378;2023-03-05T01:51:39;100197.63;;;0.43
63113;BMP280;49206;48.020;21.378;2023-03-05T01:52:46;100199.44;;;0.42
63113;BMP280;49206;48.020;21.378;2023-03-05T01:53:52;100194.22;;;0.42
63113;BMP280;49206;48.020;21.378;2023-03-05T01:55:00;100191.63;;;0.42
63113;BMP280;49206;48.020;21.378;2023-03-05T01:56:04;100196.06;;;0.42
63113;BMP280;49206;48.020;21.378;2023-03-05T01:57:10;100194.50;;;0.41
63113;BMP280;49206;48.020;21.378;2023-03-05T01:58:16;100198.13;;;0.45
63113;BMP280;49206;48.020;21.378;2023-03-05T01:59:19;100196.84;;;0.37
63113;BMP280;49206;48.020;21.378;2023-03-05T02:00:28;100200.75;;;0.35
63113;BMP280;49206;48.020;21.378;2023-03-05T02:01:37;100198.13;;;0.40
63113;BMP280;49206;48.020;21.378;2023-03-05T02:02:45;100199.16;;;0.44
63113;BMP280;49206;48.020;21.378;2023-03-05T02:03:48;100194.75;;;0.49
63113;BMP280;49206;48.020;21.378;2023-03-05T02:05:04;100198.66;;;0.47
63113;BMP280;49206;48.020;21.378;2023-03-05T02:06:07;100192.91;;;0.50
63113;BMP280;49206;48.020;21.378;2023-03-05T02:07:11;100195.53;;;0.40
63113;BMP280;49206;48.020;21.378;2023-03-05T02:08:16;100192.94;;;0.40
63113;BMP280;49206;48.020;21.378;2023-03-05T02:09:19;100189.03;;;0.47
63113;BMP280;49206;48.020;21.378;2023-03-05T02:10:47;100198.63;;;0.57
63113;BMP280;49206;48.020;21.378;2023-03-05T02:11:50;100190.34;;;0.55
63113;BMP280;49206;48.020;21.378;2023-03-05T02:12:55;100192.94;;;0.55
63113;BMP280;49206;48.020;21.378;2023-03-05T02:13:58;100191.09;;;0.55
63113;BMP280;49206;48.020;21.378;2023-03-05T02:15:00;100185.13;;;0.55
63113;BMP280;49206;48.020;21.378;2023-03-05T02:16:03;100190.81;;;0.62
63113;BMP280;49206;48.020;21.378;2023-03-05T02:17:07;100186.66;;;0.61
63113;BMP280;49206;48.020;21.378;2023-03-05T02:18:11;100192.88;;;0.65
63113;BMP280;49206;48.020;21.378;2023-03-05T02:19:14;100182.50;;;0.65
63113;BMP280;49206;48.020;21.378;2023-03-05T02:20:25;100194.19;;;0.68
63113;BMP280;49206;48.020;21.378;2023-03-05T02:21:37;100190.25;;;0.75
63113;BMP280;49206;48.020;21.378;2023-03-05T02:22:39;100187.19;;;0.58
63113;BMP280;49206;48.020;21.378;2023-03-05T02:23:42;100199.69;;;0.51
63113;BMP280;49206;48.020;21.378;2023-03-05T02:24:44;100192.69;;;0.41
63113;BMP280;49206;48.020;21.378;2023-03-05T02:25:50;100199.16;;;0.44
63113;BMP280;49206;48.020;21.378;2023-03-05T02:26:53;100195.53;;;0.45
63113;BMP280;49206;48.020;21.378;2023-03-05T02:28:05;100197.88;;;0.41
63113;BMP280;49206;48.020;21.378;2023-03-05T02:29:13;100201.53;;;0.35
63113;BMP280;49206;48.020;21.378;2023-03-05T02:30:18;100197.38;;;0.39
63113;BMP280;49206;48.020;21.378;2023-03-05T02:31:23;100203.34;;;0.40
63113;BMP280;49206;48.020;21.378;2023-03-05T02:32:26;100197.38;;;0.39
63113;BMP280;49206;48.020;21.378;2023-03-05T02:33:29;100203.38;;;0.30
63113;BMP280;49206;48.020;21.378;2023-03-05T02:34:31;100201.00;;;0.38
63113;BMP280;49206;48.020;21.378;2023-03-05T02:35:34;100204.88;;;0.41
63113;BMP280;49206;48.020;21.378;2023-03-05T02:36:37;100215.28;;;0.46
63113;BMP280;49206;48.020;21.378;2023-03-05T02:37:40;100205.13;;;0.49
63113;BMP280;49206;48.020;21.378;2023-03-05T02:38:44;100216.56;;;0.48
63113;BMP280;49206;48.020;21.378;2023-03-05T02:39:48;100210.84;;;0.51
63113;BMP280;49206;48.020;21.378;2023-03-05T02:40:50;100204.63;;;0.37
63113;BMP280;49206;48.020;21.378;2023-03-05T02:41:52;100206.72;;;0.40
63113;BMP280;49206;48.020;21.378;2023-03-05T02:42:55;100209.81;;;0.37
63113;BMP280;49206;48.020;21.378;2023-03-05T02:43:57;100205.69;;;0.36
63113;BMP280;49206;48.020;21.378;2023-03-05T02:45:00;100212.94;;;0.44
63113;BMP280;49206;48.020;21.378;2023-03-05T02:46:04;100211.63;;;0.47
63113;BMP280;49206;48.020;21.378;2023-03-05T02:47:07;100212.41;;;0.47
63113;BMP280;49206;48.020;21.378;2023-03-05T02:48:09;100207.47;;;0.51
63113;BMP280;49206;48.020;21.378;2023-03-05T02:49:12;100214.47;;;0.50
63113;BMP280;49206;48.020;21.378;2023-03-05T02:50:15;100209.81;;;0.47
63113;BMP280;49206;48.020;21.378;2023-03-05T02:51:18;100212.13;;;0.54
63113;BMP280;49206;48.020;21.378;2023-03-05T02:52:21;100215.78;;;0.53
63113;BMP280;49206;48.020;21.378;2023-03-05T02:53:27;100206.94;;;0.54
63113;BMP280;49206;48.020;21.378;2023-03-05T02:54:30;100211.34;;;0.58
63113;BMP280;49206;48.020;21.378;2023-03-05T02:55:32;100212.38;;;0.63
63113;BMP280;49206;48.020;21.378;2023-03-05T02:56:35;100215.22;;;0.61
63113;BMP280;49206;48.020;21.378;2023-03-05T02:57:39;100209.78;;;0.63
63113;BMP280;49206;48.020;21.378;2023-03-05T02:58:42;100210.03;;;0.61
63113;BMP280;49206;48.020;21.378;2023-03-05T02:59:45;100204.59;;;0.63
63113;BMP280;49206;48.020;21.378;2023-03-05T03:00:48;100205.34;;;0.63
63113;BMP280;49206;48.020;21.378;2023-03-05T03:01:50;100201.19;;;0.62
63113;BMP280;49206;48.020;21.378;2023-03-05T03:02:52;100203.81;;;0.62
63113;BMP280;49206;48.020;21.378;2023-03-05T03:03:55;100208.50;;;0.60
63113;BMP280;49206;48.020;21.378;2023-03-05T03:04:57;100213.94;;;0.63
63113;BMP280;49206;48.020;21.378;2023-03-05T03:06:00;100205.34;;;0.68
63113;BMP280;49206;48.020;21.378;2023-03-05T03:07:02;100203.78;;;0.67
63113;BMP280;49206;48.020;21.378;2023-03-05T03:08:05;100206.91;;;0.59
63113;BMP280;49206;48.020;21.378;2023-03-05T03:09:07;100206.94;;;0.64
63113;BMP280;49206;48.020;21.378;2023-03-05T03:10:10;100207.94;;;0.68
63113;BMP280;49206;48.020;21.378;2023-03-05T03:11:14;100201.72;;;0.69
63113;BMP280;49206;48.020;21.378;2023-03-05T03:12:17;100204.84;;;0.66
63113;BMP280;49206;48.020;21.378;2023-03-05T03:13:19;100204.84;;;0.66
63113;BMP280;49206;48.020;21.378;2023-03-05T03:14:22;100208.97;;;0.67
63113;BMP280;49206;48.020;21.378;2023-03-05T03:15:24;100204.81;;;0.71
63113;BMP280;49206;48.020;21.378;2023-03-05T03:16:27;100214.16;;;0.72
63113;BMP280;49206;48.020;21.378;2023-03-05T03:17:30;100215.69;;;0.73
63113;BMP280;49206;48.020;21.378;2023-03-05T03:18:32;100212.09;;;0.74
63113;BMP280;49206;48.020;21.378;2023-03-05T03:19:35;100212.09;;;0.74
63113;BMP280;49206;48.020;21.378;2023-03-05T03:20:38;100220.63;;;0.74
63113;BMP280;49206;48.020;21.378;2023-03-05T03:21:40;100213.09;;;0.73
63113;BMP280;49206;48.020;21.378;2023-03-05T03:22:44;100216.78;;;0.62
63113;BMP280;49206;48.020;21.378;2023-03-05T03:23:46;100213.66;;;0.70
63113;BMP280;49206;48.020;21.378;2023-03-05T03:24:49;100213.41;;;0.72
63113;BMP280;49206;48.020;21.378;2023-03-05T03:25:51;100213.13;;;0.63
63113;BMP280;49206;48.020;21.378;2023-03-05T03:26:53;100214.00;;;0.43
63113;BMP280;49206;48.020;21.378;2023-03-05T03:27:56;100209.56;;;0.44
63113;BMP280;49206;48.020;21.378;2023-03-05T03:28:58;100211.63;;;0.52
63113;BMP280;49206;48.020;21.378;2023-03-05T03:30:01;100211.09;;;0.60
63113;BMP280;49206;48.020;21.378;2023-03-05T03:31:06;100213.16;;;0.58
63113;BMP280;49206;48.020;21.378;2023-03-05T03:32:08;100210.81;;;0.61
63113;BMP280;49206;48.020;21.378;2023-03-05T03:33:11;100209.78;;;0.63
63113;BMP280;49206;48.020;21.378;2023-03-05T03:34:14;100206.13;;;0.68
63113;BMP280;49206;48.020;21.378;2023-03-05T03:35:17;100211.56;;;0.72
63113;BMP280;49206;48.020;21.378;2023-03-05T03:36:20;100203.50;;;0.73
63113;BMP280;49206;48.020;21.378;2023-03-05T03:37:22;100197.78;;;0.77
63113;BMP280;49206;48.020;21.378;2023-03-05T03:38:25;100207.38;;;0.76
63113;BMP280;49206;48.020;21.378;2023-03-05T03:39:27;100204.28;;;0.79
63113;BMP280;49206;48.020;21.378;2023-03-05T03:40:30;100210.22;;;0.79
63113;BMP280;49206;48.020;21.378;2023-03-05T03:41:32;100208.91;;;0.82
63113;BMP280;49206;48.020;21.378;2023-03-05T03:42:35;100202.44;;;0.79
63113;BMP280;49206;48.020;21.378;2023-03-05T03:43:37;100206.09;;;0.73
63113;BMP280;49206;48.020;21.378;2023-03-05T03:44:40;100210.00;;;0.76
63113;BMP280;49206;48.020;21.378;2023-03-05T03:45:43;100199.84;;;0.74
63113;BMP280;49206;48.020;21.378;2023-03-05T03:46:47;100212.06;;;0.79
63113;BMP280;49206;48.020;21.378;2023-03-05T03:47:50;100206.88;;;0.79
63113;BMP280;49206;48.020;21.378;2023-03-05T03:48:53;100205.78;;;0.85
63113;BMP280;49206;48.020;21.378;2023-03-05T03:49:55;100201.38;;;0.91
63113;BMP280;49206;48.020;21.378;2023-03-05T03:51:02;100205.00;;;0.95
63113;BMP280;49206;48.020;21.378;2023-03-05T03:52:05;100191.47;;;0.93
63113;BMP280;49206;48.020;21.378;2023-03-05T03:53:08;100197.94;;;0.95
63113;BMP280;49206;48.020;21.378;2023-03-05T03:54:11;100198.47;;;0.97
63113;BMP280;49206;48.020;21.378;2023-03-05T03:55:14;100204.72;;;1.01
63113;BMP280;49206;48.020;21.378;2023-03-05T03:56:16;100200.00;;;1.03
63113;BMP280;49206;48.020;21.378;2023-03-05T03:57:19;100195.63;;;0.99
63113;BMP280;49206;48.020;21.378;2023-03-05T03:58:21;100199.53;;;0.96
63113;BMP280;49206;48.020;21.378;2023-03-05T03:59:24;100197.16;;;1.00
63113;BMP280;49206;48.020;21.378;2023-03-05T04:00:26;100198.75;;;0.96
63113;BMP280;49206;48.020;21.378;2023-03-05T04:01:28;100198.72;;;1.01
63113;BMP280;49206;48.020;21.378;2023-03-05T04:02:31;100195.31;;;1.00
63113;BMP280;49206;48.020;21.378;2023-03-05T04:03:33;100192.78;;;0.90
63113;BMP280;49206;48.020;21.378;2023-03-05T04:04:36;100194.34;;;0.96
63113;BMP280;49206;48.020;21.378;2023-03-05T04:05:38;100195.09;;;0.97
63113;BMP280;49206;48.020;21.378;2023-03-05T04:06:41;100194.31;;;0.91
63113;BMP280;49206;48.020;21.378;2023-03-05T04:07:43;100196.94;;;0.91
63113;BMP280;49206;48.020;21.378;2023-03-05T04:08:46;100193.31;;;0.92
63113;BMP280;49206;48.020;21.378;2023-03-05T04:09:49;100196.38;;;0.99
63113;BMP280;49206;48.020;21.378;2023-03-05T04:10:52;100197.66;;;1.02
63113;BMP280;49206;48.020;21.378;2023-03-05T04:11:54;100204.19;;;0.94
63113;BMP280;49206;48.020;21.378;2023-03-05T04:12:56;100198.47;;;0.97
63113;BMP280;49206;48.020;21.378;2023-03-05T04:13:59;100197.66;;;1.02
63113;BMP280;49206;48.020;21.378;2023-03-05T04:15:02;100190.91;;;1.01
63113;BMP280;49206;48.020;21.378;2023-03-05T04:16:04;100193.75;;;1.04
63113;BMP280;49206;48.020;21.378;2023-03-05T04:17:07;100194.53;;;1.05
63113;BMP280;49206;48.020;21.378;2023-03-05T04:18:10;100197.91;;;1.10
63113;BMP280;49206;48.020;21.378;2023-03-05T04:19:12;100196.91;;;1.01
63113;BMP280;49206;48.020;21.378;2023-03-05T04:20:15;100196.91;;;1.01
63113;BMP280;49206;48.020;21.378;2023-03-05T04:21:18;100191.41;;;1.02
63113;BMP280;49206;48.020;21.378;2023-03-05T04:22:20;100195.31;;;1.05
63113;BMP280;49206;48.020;21.378;2023-03-05T04:23:23;100190.09;;;1.10
63113;BMP280;49206;48.020;21.378;2023-03-05T04:24:25;100198.44;;;1.07
63113;BMP280;49206;48.020;21.378;2023-03-05T04:25:27;100187.50;;;1.10
63113;BMP280;49206;48.020;21.378;2023-03-05T04:26:30;100185.69;;;1.06
63113;BMP280;49206;48.020;21.378;2023-03-05T04:27:33;100184.91;;;1.05
63113;BMP280;49206;48.020;21.378;2023-03-05T04:28:36;100185.44;;;1.07
63113;BMP280;49206;48.020;21.378;2023-03-05T04:29:38;100185.94;;;1.09
63113;BMP280;49206;48.020;21.378;2023-03-05T04:30:41;100186.47;;;1.06
63113;BMP280;49206;48.020;21.378;2023-03-05T04:31:44;100186.72;;;1.10
63113;BMP280;49206;48.020;21.378;2023-03-05T04:32:46;100190.88;;;1.11
63113;BMP280;49206;48.020;21.378;2023-03-05T04:33:49;100185.44;;;1.07
63113;BMP280;49206;48.020;21.378;2023-03-05T04:34:51;100178.41;;;1.08
63113;BMP280;49206;48.020;21.378;2023-03-05T04:35:54;100180.72;;;1.09
63113;BMP280;49206;48.020;21.378;2023-03-05T04:36:57;100186.97;;;1.08
63113;BMP280;49206;48.020;21.378;2023-03-05T04:37:59;100184.13;;;1.10
63113;BMP280;49206;48.020;21.378;2023-03-05T04:39:02;100185.94;;;1.09
63113;BMP280;49206;48.020;21.378;2023-03-05T04:40:06;100182.81;;;1.12
63113;BMP280;49206;48.020;21.378;2023-03-05T04:41:08;100178.91;;;1.10
63113;BMP280;49206;48.020;21.378;2023-03-05T04:42:13;100179.19;;;1.08
63113;BMP280;49206;48.020;21.378;2023-03-05T04:43:15;100185.94;;;1.09
63113;BMP280;49206;48.020;21.378;2023-03-05T04:44:18;100186.47;;;1.11
63113;BMP280;49206;48.020;21.378;2023-03-05T04:45:20;100170.94;;;0.96
63113;BMP280;49206;48.020;21.378;2023-03-05T04:46:22;100182.34;;;0.95
63113;BMP280;49206;48.020;21.378;2023-03-05T04:47:25;100182.63;;;0.93
63113;BMP280;49206;48.020;21.378;2023-03-05T04:48:27;100175.88;;;0.93
63113;BMP280;49206;48.020;21.378;2023-03-05T04:49:30;100180.78;;;0.99
63113;BMP280;49206;48.020;21.378;2023-03-05T04:50:32;100180.25;;;1.02
63113;BMP280;49206;48.020;21.378;2023-03-05T04:51:34;100180.00;;;1.04
63113;BMP280;49206;48.020;21.378;2023-03-05T04:52:41;100180.50;;;1.06
63113;BMP280;49206;48.020;21.378;2023-03-05T04:53:44;100180.22;;;1.07
63113;BMP280;49206;48.020;21.378;2023-03-05T04:54:47;100180.22;;;1.07
63113;BMP280;49206;48.020;21.378;2023-03-05T04:55:55;100182.31;;;1.05
63113;BMP280;49206;48.020;21.378;2023-03-05T04:56:58;100189.13;;;0.96
63113;BMP280;49206;48.020;21.378;2023-03-05T04:58:00;100186.25;;;0.98
63113;BMP280;49206;48.020;21.378;2023-03-05T04:59:03;100188.81;;;1.02
63113;BMP280;49206;48.020;21.378;2023-03-05T05:00:08;100190.09;;;1.05
63113;BMP280;49206;48.020;21.378;2023-03-05T05:01:15;100188.59;;;0.99
63113;BMP280;49206;48.020;21.378;2023-03-05T05:02:17;100184.19;;;0.95
63113;BMP280;49206;48.020;21.378;2023-03-05T05:03:19;100188.09;;;0.97
63113;BMP280;49206;48.020;21.378;2023-03-05T05:04:22;100188.09;;;0.97
63113;BMP280;49206;48.020;21.378;2023-03-05T05:05:26;100190.09;;;1.05
63113;BMP280;49206;48.020;21.378;2023-03-05T05:06:29;100192.69;;;1.10
63113;BMP280;49206;48.020;21.378;2023-03-05T05:07:31;100185.19;;;1.04
63113;BMP280;49206;48.020;21.378;2023-03-05T05:08:34;100193.22;;;1.07
63113;BMP280;49206;48.020;21.378;2023-03-05T05:09:38;100193.22;;;1.07
63113;BMP280;49206;48.020;21.378;2023-03-05T05:10:42;100192.19;;;1.08
63113;BMP280;49206;48.020;21.378;2023-03-05T05:11:45;100189.31;;;1.10
63113;BMP280;49206;48.020;21.378;2023-03-05T05:12:47;100194.03;;;1.08
63113;BMP280;49206;48.020;21.378;2023-03-05T05:13:49;100194.78;;;1.08
63113;BMP280;49206;48.020;21.378;2023-03-05T05:14:52;100193.47;;;1.11
63113;BMP280;49206;48.020;21.378;2023-03-05T05:15:54;100203.38;;;1.09
63113;BMP280;49206;48.020;21.378;2023-03-05T05:16:57;100192.16;;;1.13
63113;BMP280;49206;48.020;21.378;2023-03-05T05:18:00;100196.31;;;1.14
63113;BMP280;49206;48.020;21.378;2023-03-05T05:19:03;100198.13;;;1.14
63113;BMP280;49206;48.020;21.378;2023-03-05T05:20:06;100198.41;;;1.12
63113;BMP280;49206;48.020;21.378;2023-03-05T05:21:11;100196.88;;;1.06
63113;BMP280;49206;48.020;21.378;2023-03-05T05:22:13;100202.56;;;1.13
63113;BMP280;49206;48.020;21.378;2023-03-05T05:23:16;100198.91;;;1.19
63113;BMP280;49206;48.020;21.378;2023-03-05T05:24:24;100203.28;;;1.24
63113;BMP280;49206;48.020;21.378;2023-03-05T05:25:28;100198.88;;;1.24
63113;BMP280;49206;48.020;21.378;2023-03-05T05:26:30;100201.72;;;1.23
63113;BMP280;49206;48.020;21.378;2023-03-05T05:27:32;100201.97;;;1.26
63113;BMP280;49206;48.020;21.378;2023-03-05T05:28:35;100203.25;;;1.29
63113;BMP280;49206;48.020;21.378;2023-03-05T05:29:39;100205.38;;;1.22
63113;BMP280;49206;48.020;21.378;2023-03-05T05:30:42;100206.19;;;1.12
63113;BMP280;49206;48.020;21.378;2023-03-05T05:31:44;100210.34;;;1.13
63113;BMP280;49206;48.020;21.378;2023-03-05T05:32:47;100205.69;;;1.15
63113;BMP280;49206;48.020;21.378;2023-03-05T05:33:49;100206.16;;;1.22
63113;BMP280;49206;48.020;21.378;2023-03-05T05:34:56;100210.03;;;1.25
63113;BMP280;49206;48.020;21.378;2023-03-05T05:36:02;100214.50;;;1.19
63113;BMP280;49206;48.020;21.378;2023-03-05T05:37:05;100208.47;;;1.24
63113;BMP280;49206;48.020;21.378;2023-03-05T05:38:07;100210.03;;;1.25
63113;BMP280;49206;48.020;21.378;2023-03-05T05:39:10;100210.28;;;1.28
63113;BMP280;49206;48.020;21.378;2023-03-05T05:40:13;100212.91;;;1.28
63113;BMP280;49206;48.020;21.378;2023-03-05T05:41:16;100213.66;;;1.29
63113;BMP280;49206;48.020;21.378;2023-03-05T05:42:22;100217.59;;;1.21
63113;BMP280;49206;48.020;21.378;2023-03-05T05:43:24;100218.38;;;1.17
63113;BMP280;49206;48.020;21.378;2023-03-05T05:44:27;100216.53;;;1.22
63113;BMP280;49206;48.020;21.378;2023-03-05T05:45:29;100217.56;;;1.26
63113;BMP280;49206;48.020;21.378;2023-03-05T05:46:32;100213.44;;;1.20
63113;BMP280;49206;48.020;21.378;2023-03-05T05:47:34;100213.97;;;1.17
63113;BMP280;49206;48.020;21.378;2023-03-05T05:48:37;100219.38;;;1.26
63113;BMP280;49206;48.020;21.378;2023-03-05T05:49:40;100221.41;;;1.33
63113;BMP280;49206;48.020;21.378;2023-03-05T05:50:43;100226.59;;;1.33
63113;BMP280;49206;48.020;21.378;2023-03-05T05:51:45;100226.34;;;1.35
63113;BMP280;49206;48.020;21.378;2023-03-05T05:52:50;100236.72;;;1.40
63113;BMP280;49206;48.020;21.378;2023-03-05T05:53:52;100225.25;;;1.41
63113;BMP280;49206;48.020;21.378;2023-03-05T05:54:55;100228.16;;;1.40
63113;BMP280;49206;48.020;21.378;2023-03-05T05:55:57;100225.25;;;1.41
63113;BMP280;49206;48.020;21.378;2023-03-05T05:57:00;100228.38;;;1.43
63113;BMP280;49206;48.020;21.378;2023-03-05T05:58:02;100226.53;;;1.43
63113;BMP280;49206;48.020;21.378;2023-03-05T05:59:05;100230.19;;;1.42
63113;BMP280;49206;48.020;21.378;2023-03-05T06:00:10;100228.38;;;1.43